Terminal Aerodrome Forecast
Issued by NWS

Current Version | Previous Version | Text Only | Print | Product List | Glossary Off
Versions: 1 2 3 4 5 6 7 8 9 10 11 12 13 14 15 16 17 18 19 20 21 22 23 24

000
FTUS41 KRLX 250800 AAA
TAFCKB
TAF AMD
KCKB 250843Z 2509/2606 04004KT P6SM VCSH OVC090
     FM251700 08004KT 6SM SHRA OVC060
     FM251900 07004KT 5SM SHRA OVC050
     FM260100 05004KT 6SM SHRA BR OVC040=

USA.gov is the U.S. government's official web portal to all federal, state and local government web resources and services.